sensor_id;sensor_type;location;lat;lon;timestamp;pressure;altitude;pressure_sealevel;temperature;humidity
19827;BME280;10074;52.018;4.726;2023-05-22T00:04:40;46301.47;;;-144.79;100.00
19827;BME280;10074;52.018;4.726;2023-05-22T00:09:40;46299.47;;;-144.79;100.00
19827;BME280;10074;52.018;4.726;2023-05-22T00:14:41;46305.47;;;-144.79;100.00
19827;BME280;10074;52.018;4.726;2023-05-22T00:19:41;46297.44;;;-144.79;100.00
19827;BME280;10074;52.018;4.726;2023-05-22T00:24:42;46291.44;;;-144.79;100.00
19827;BME280;10074;52.018;4.726;2023-05-22T00:29:42;46295.44;;;-144.79;100.00
19827;BME280;10074;52.018;4.726;2023-05-22T00:34:42;46299.47;;;-144.79;100.00
19827;BME280;10074;52.018;4.726;2023-05-22T00:39:43;46295.44;;;-144.79;100.00
19827;BME280;10074;52.018;4.726;2023-05-22T00:44:43;46301.47;;;-144.79;100.00
19827;BME280;10074;52.018;4.726;2023-05-22T00:49:44;46293.44;;;-144.79;100.00
19827;BME280;10074;52.018;4.726;2023-05-22T00:54:46;46299.47;;;-144.79;100.00
19827;BME280;10074;52.018;4.726;2023-05-22T00:59:47;46291.44;;;-144.79;100.00
19827;BME280;10074;52.018;4.726;2023-05-22T01:04:48;46293.44;;;-144.79;100.00
19827;BME280;10074;52.018;4.726;2023-05-22T01:09:48;46293.44;;;-144.79;100.00
19827;BME280;10074;52.018;4.726;2023-05-22T01:20:28;46299.47;;;-144.79;100.00
19827;BME280;10074;52.018;4.726;2023-05-22T01:25:55;46299.47;;;-144.79;100.00
19827;BME280;10074;52.018;4.726;2023-05-22T01:31:10;46299.47;;;-144.79;100.00
19827;BME280;10074;52.018;4.726;2023-05-22T01:36:14;46299.47;;;-144.79;100.00
19827;BME280;10074;52.018;4.726;2023-05-22T01:41:19;46299.47;;;-144.79;100.00
19827;BME280;10074;52.018;4.726;2023-05-22T01:46:20;46299.47;;;-144.79;100.00
19827;BME280;10074;52.018;4.726;2023-05-22T01:51:46;46295.44;;;-144.79;100.00
19827;BME280;10074;52.018;4.726;2023-05-22T01:56:58;46301.47;;;-144.79;100.00
19827;BME280;10074;52.018;4.726;2023-05-22T02:02:05;46295.44;;;-144.79;100.00
19827;BME280;10074;52.018;4.726;2023-05-22T02:07:08;46297.44;;;-144.79;100.00
19827;BME280;10074;52.018;4.726;2023-05-22T02:12:11;46295.44;;;-144.79;100.00
19827;BME280;10074;52.018;4.726;2023-05-22T02:17:12;46295.44;;;-144.79;100.00
19827;BME280;10074;52.018;4.726;2023-05-22T02:22:13;46287.44;;;-144.79;100.00
19827;BME280;10074;52.018;4.726;2023-05-22T02:27:13;46291.44;;;-144.79;100.00
19827;BME280;10074;52.018;4.726;2023-05-22T02:32:14;46291.44;;;-144.79;100.00
19827;BME280;10074;52.018;4.726;2023-05-22T02:37:14;46291.44;;;-144.79;100.00
19827;BME280;10074;52.018;4.726;2023-05-22T02:42:15;46283.41;;;-144.79;100.00
19827;BME280;10074;52.018;4.726;2023-05-22T02:47:15;46291.44;;;-144.79;100.00
19827;BME280;10074;52.018;4.726;2023-05-22T02:52:15;46279.41;;;-144.79;100.00
19827;BME280;10074;52.018;4.726;2023-05-22T02:57:16;46291.44;;;-144.79;100.00
19827;BME280;10074;52.018;4.726;2023-05-22T03:02:16;46295.44;;;-144.79;100.00
19827;BME280;10074;52.018;4.726;2023-05-22T03:07:17;46285.41;;;-144.79;100.00
19827;BME280;10074;52.018;4.726;2023-05-22T03:12:19;46285.41;;;-144.79;100.00
19827;BME280;10074;52.018;4.726;2023-05-22T03:17:19;46283.41;;;-144.79;100.00
19827;BME280;10074;52.018;4.726;2023-05-22T03:22:20;46283.41;;;-144.79;100.00
19827;BME280;10074;52.018;4.726;2023-05-22T03:27:20;46275.41;;;-144.79;100.00
19827;BME280;10074;52.018;4.726;2023-05-22T03:32:21;46281.41;;;-144.79;100.00
19827;BME280;10074;52.018;4.726;2023-05-22T03:37:21;46283.41;;;-144.79;100.00
19827;BME280;10074;52.018;4.726;2023-05-22T03:42:21;46281.41;;;-144.79;100.00
19827;BME280;10074;52.018;4.726;2023-05-22T03:47:22;46289.44;;;-144.79;100.00
19827;BME280;10074;52.018;4.726;2023-05-22T03:52:22;46281.41;;;-144.79;100.00
19827;BME280;10074;52.018;4.726;2023-05-22T03:57:22;46279.41;;;-144.79;100.00
19827;BME280;10074;52.018;4.726;2023-05-22T04:02:23;46275.41;;;-144.79;100.00
19827;BME280;10074;52.018;4.726;2023-05-22T04:07:25;46275.41;;;-144.79;100.00
19827;BME280;10074;52.018;4.726;2023-05-22T04:12:25;46283.41;;;-144.79;100.00
19827;BME280;10074;52.018;4.726;2023-05-22T04:17:32;46277.41;;;-144.79;100.00
19827;BME280;10074;52.018;4.726;2023-05-22T04:22:33;46283.41;;;-144.79;100.00
19827;BME280;10074;52.018;4.726;2023-05-22T04:27:33;46291.44;;;-144.79;100.00
19827;BME280;10074;52.018;4.726;2023-05-22T04:32:35;46281.41;;;-144.79;100.00
19827;BME280;10074;52.018;4.726;2023-05-22T04:37:35;46283.41;;;-144.79;100.00
19827;BME280;10074;52.018;4.726;2023-05-22T04:42:39;46283.41;;;-144.79;100.00
19827;BME280;10074;52.018;4.726;2023-05-22T04:47:40;46281.41;;;-144.79;100.00
19827;BME280;10074;52.018;4.726;2023-05-22T04:52:40;46279.41;;;-144.79;100.00
19827;BME280;10074;52.018;4.726;2023-05-22T04:57:41;46283.41;;;-144.79;100.00
19827;BME280;10074;52.018;4.726;2023-05-22T05:02:43;46287.44;;;-144.79;100.00
19827;BME280;10074;52.018;4.726;2023-05-22T05:07:46;46271.38;;;-144.79;100.00
19827;BME280;10074;52.018;4.726;2023-05-22T05:12:46;46287.44;;;-144.79;100.00
19827;BME280;10074;52.018;4.726;2023-05-22T05:17:46;46281.41;;;-144.79;100.00
19827;BME280;10074;52.018;4.726;2023-05-22T05:22:47;46275.41;;;-144.79;100.00
19827;BME280;10074;52.018;4.726;2023-05-22T05:27:47;46279.41;;;-144.79;100.00
19827;BME280;10074;52.018;4.726;2023-05-22T05:32:48;46283.41;;;-144.79;100.00
19827;BME280;10074;52.018;4.726;2023-05-22T05:37:48;46283.41;;;-144.79;100.00
19827;BME280;10074;52.018;4.726;2023-05-22T05:42:49;46281.41;;;-144.79;100.00
19827;BME280;10074;52.018;4.726;2023-05-22T05:47:49;46279.41;;;-144.79;100.00
19827;BME280;10074;52.018;4.726;2023-05-22T05:52:49;46277.41;;;-144.79;100.00
19827;BME280;10074;52.018;4.726;2023-05-22T05:57:50;46285.41;;;-144.79;100.00
19827;BME280;10074;52.018;4.726;2023-05-22T06:02:51;46283.41;;;-144.79;100.00
19827;BME280;10074;52.018;4.726;2023-05-22T06:07:51;46283.41;;;-144.79;100.00
19827;BME280;10074;52.018;4.726;2023-05-22T06:12:51;46289.44;;;-144.79;100.00
19827;BME280;10074;52.018;4.726;2023-05-22T06:17:52;46297.44;;;-144.79;100.00
19827;BME280;10074;52.018;4.726;2023-05-22T06:22:52;46295.44;;;-144.79;100.00
19827;BME280;10074;52.018;4.726;2023-05-22T06:27:52;46287.44;;;-144.79;100.00
19827;BME280;10074;52.018;4.726;2023-05-22T06:32:53;46287.44;;;-144.79;100.00
19827;BME280;10074;52.018;4.726;2023-05-22T06:37:53;46287.44;;;-144.79;100.00
19827;BME280;10074;52.018;4.726;2023-05-22T06:42:54;46287.44;;;-144.79;100.00
19827;BME280;10074;52.018;4.726;2023-05-22T06:47:54;46279.41;;;-144.79;100.00
19827;BME280;10074;52.018;4.726;2023-05-22T06:52:54;46279.41;;;-144.79;100.00
19827;BME280;10074;52.018;4.726;2023-05-22T06:57:55;46281.41;;;-144.79;100.00
19827;BME280;10074;52.018;4.726;2023-05-22T07:02:56;46279.41;;;-144.79;100.00
19827;BME280;10074;52.018;4.726;2023-05-22T07:07:56;46283.41;;;-144.79;100.00
19827;BME280;10074;52.018;4.726;2023-05-22T07:12:56;46279.41;;;-144.79;100.00
19827;BME280;10074;52.018;4.726;2023-05-22T07:17:57;46283.41;;;-144.79;100.00
19827;BME280;10074;52.018;4.726;2023-05-22T07:22:57;46287.44;;;-144.79;100.00
19827;BME280;10074;52.018;4.726;2023-05-22T07:27:57;46311.50;;;-144.79;100.00
19827;BME280;10074;52.018;4.726;2023-05-22T07:32:58;46293.44;;;-144.79;100.00
19827;BME280;10074;52.018;4.726;2023-05-22T07:37:58;46315.50;;;-144.79;100.00
19827;BME280;10074;52.018;4.726;2023-05-22T07:42:58;46323.53;;;-144.79;100.00
19827;BME280;10074;52.018;4.726;2023-05-22T07:47:58;46327.53;;;-144.79;100.00
19827;BME280;10074;52.018;4.726;2023-05-22T07:53:00;46339.56;;;-144.79;100.00
19827;BME280;10074;52.018;4.726;2023-05-22T07:58:01;46351.59;;;-144.79;100.00
19827;BME280;10074;52.018;4.726;2023-05-22T08:03:03;46361.63;;;-144.79;100.00
19827;BME280;10074;52.018;4.726;2023-05-22T08:08:03;46371.63;;;-144.79;100.00
19827;BME280;10074;52.018;4.726;2023-05-22T08:13:03;46375.66;;;-144.79;100.00
19827;BME280;10074;52.018;4.726;2023-05-22T08:18:06;46371.63;;;-144.79;100.00
19827;BME280;10074;52.018;4.726;2023-05-22T08:23:07;46381.66;;;-144.79;100.00
19827;BME280;10074;52.018;4.726;2023-05-22T08:28:07;46369.63;;;-144.79;100.00
19827;BME280;10074;52.018;4.726;2023-05-22T08:33:07;46363.63;;;-144.79;100.00
19827;BME280;10074;52.018;4.726;2023-05-22T08:38:08;46339.56;;;-144.79;100.00
19827;BME280;10074;52.018;4.726;2023-05-22T08:43:08;46325.53;;;-144.79;100.00
19827;BME280;10074;52.018;4.726;2023-05-22T08:48:12;46327.53;;;-144.79;100.00
19827;BME280;10074;52.018;4.726;2023-05-22T08:53:14;46327.53;;;-144.79;100.00
19827;BME280;10074;52.018;4.726;2023-05-22T08:58:15;46325.53;;;-144.79;100.00
19827;BME280;10074;52.018;4.726;2023-05-22T09:03:17;46319.50;;;-144.79;100.00
19827;BME280;10074;52.018;4.726;2023-05-22T09:08:20;46327.53;;;-144.79;100.00
19827;BME280;10074;52.018;4.726;2023-05-22T09:13:26;46329.53;;;-144.79;100.00
19827;BME280;10074;52.018;4.726;2023-05-22T09:18:27;46339.56;;;-144.79;100.00
19827;BME280;10074;52.018;4.726;2023-05-22T09:23:28;46335.53;;;-144.79;100.00
19827;BME280;10074;52.018;4.726;2023-05-22T09:28:33;46351.59;;;-144.79;100.00
19827;BME280;10074;52.018;4.726;2023-05-22T09:33:36;46379.66;;;-144.79;100.00
19827;BME280;10074;52.018;4.726;2023-05-22T09:38:38;46403.72;;;-144.79;100.00
19827;BME280;10074;52.018;4.726;2023-05-22T09:43:48;46409.75;;;-144.79;100.00
19827;BME280;10074;52.018;4.726;2023-05-22T09:48:52;46423.78;;;-144.79;100.00
19827;BME280;10074;52.018;4.726;2023-05-22T09:54:00;46411.75;;;-144.79;100.00
19827;BME280;10074;52.018;4.726;2023-05-22T09:59:04;46409.75;;;-144.79;100.00
19827;BME280;10074;52.018;4.726;2023-05-22T10:04:10;46417.75;;;-144.79;100.00
19827;BME280;10074;52.018;4.726;2023-05-22T10:09:14;46395.69;;;-144.79;100.00
19827;BME280;10074;52.018;4.726;2023-05-22T10:14:16;46391.69;;;-144.79;100.00
19827;BME280;10074;52.018;4.726;2023-05-22T10:19:17;46411.75;;;-144.79;100.00
19827;BME280;10074;52.018;4.726;2023-05-22T10:24:17;46415.75;;;-144.79;100.00
19827;BME280;10074;52.018;4.726;2023-05-22T10:29:22;46413.75;;;-144.79;100.00
19827;BME280;10074;52.018;4.726;2023-05-22T10:34:29;46423.78;;;-144.79;100.00
19827;BME280;10074;52.018;4.726;2023-05-22T10:44:52;46427.78;;;-144.79;100.00
19827;BME280;10074;52.018;4.726;2023-05-22T10:50:10;46445.84;;;-144.79;100.00
19827;BME280;10074;52.018;4.726;2023-05-22T10:55:11;46453.84;;;-144.79;100.00
19827;BME280;10074;52.018;4.726;2023-05-22T11:00:14;46447.84;;;-144.79;100.00
19827;BME280;10074;52.018;4.726;2023-05-22T11:10:25;46447.84;;;-144.79;100.00
19827;BME280;10074;52.018;4.726;2023-05-22T11:15:29;46441.81;;;-144.79;100.00
19827;BME280;10074;52.018;4.726;2023-05-22T11:20:36;46449.84;;;-144.79;100.00
19827;BME280;10074;52.018;4.726;2023-05-22T11:25:37;46453.84;;;-144.79;100.00
19827;BME280;10074;52.018;4.726;2023-05-22T11:30:39;46447.84;;;-144.79;100.00
19827;BME280;10074;52.018;4.726;2023-05-22T11:35:41;46453.84;;;-144.79;100.00
19827;BME280;10074;52.018;4.726;2023-05-22T11:40:43;46447.84;;;-144.79;100.00
19827;BME280;10074;52.018;4.726;2023-05-22T11:45:44;46449.84;;;-144.79;100.00
19827;BME280;10074;52.018;4.726;2023-05-22T11:50:44;46449.84;;;-144.79;100.00
19827;BME280;10074;52.018;4.726;2023-05-22T11:55:47;46449.84;;;-144.79;100.00
19827;BME280;10074;52.018;4.726;2023-05-22T12:00:48;46457.88;;;-144.79;100.00
19827;BME280;10074;52.018;4.726;2023-05-22T12:05:49;46457.88;;;-144.79;100.00
19827;BME280;10074;52.018;4.726;2023-05-22T12:10:51;46459.88;;;-144.79;100.00
19827;BME280;10074;52.018;4.726;2023-05-22T12:15:53;46465.88;;;-144.79;100.00
19827;BME280;10074;52.018;4.726;2023-05-22T12:20:54;46457.88;;;-144.79;100.00
19827;BME280;10074;52.018;4.726;2023-05-22T12:26:02;46465.88;;;-144.79;100.00
19827;BME280;10074;52.018;4.726;2023-05-22T12:31:03;46461.88;;;-144.79;100.00
19827;BME280;10074;52.018;4.726;2023-05-22T12:36:06;46461.88;;;-144.79;100.00
19827;BME280;10074;52.018;4.726;2023-05-22T12:41:07;46459.88;;;-144.79;100.00
19827;BME280;10074;52.018;4.726;2023-05-22T12:46:07;46459.88;;;-144.79;100.00
19827;BME280;10074;52.018;4.726;2023-05-22T12:51:07;46459.88;;;-144.79;100.00
19827;BME280;10074;52.018;4.726;2023-05-22T12:56:08;46459.88;;;-144.79;100.00
19827;BME280;10074;52.018;4.726;2023-05-22T13:01:08;46461.88;;;-144.79;100.00
19827;BME280;10074;52.018;4.726;2023-05-22T13:06:09;46457.88;;;-144.79;100.00
19827;BME280;10074;52.018;4.726;2023-05-22T13:11:11;46455.84;;;-144.79;100.00
19827;BME280;10074;52.018;4.726;2023-05-22T13:16:11;46453.84;;;-144.79;100.00
19827;BME280;10074;52.018;4.726;2023-05-22T13:21:11;46457.88;;;-144.79;100.00
19827;BME280;10074;52.018;4.726;2023-05-22T13:26:12;46455.84;;;-144.79;100.00
19827;BME280;10074;52.018;4.726;2023-05-22T13:31:12;46455.84;;;-144.79;100.00
19827;BME280;10074;52.018;4.726;2023-05-22T13:36:13;46451.84;;;-144.79;100.00
19827;BME280;10074;52.018;4.726;2023-05-22T13:41:13;46457.88;;;-144.79;100.00
19827;BME280;10074;52.018;4.726;2023-05-22T13:46:14;46455.84;;;-144.79;100.00
19827;BME280;10074;52.018;4.726;2023-05-22T13:51:15;46459.88;;;-144.79;100.00
19827;BME280;10074;52.018;4.726;2023-05-22T13:56:15;46455.84;;;-144.79;100.00
19827;BME280;10074;52.018;4.726;2023-05-22T14:01:16;46451.84;;;-144.79;100.00
19827;BME280;10074;52.018;4.726;2023-05-22T14:06:16;46461.88;;;-144.79;100.00
19827;BME280;10074;52.018;4.726;2023-05-22T14:11:16;46461.88;;;-144.79;100.00
19827;BME280;10074;52.018;4.726;2023-05-22T14:16:16;46459.88;;;-144.79;100.00
19827;BME280;10074;52.018;4.726;2023-05-22T14:21:17;46457.88;;;-144.79;100.00
19827;BME280;10074;52.018;4.726;2023-05-22T14:26:18;46461.88;;;-144.79;100.00
19827;BME280;10074;52.018;4.726;2023-05-22T14:31:18;46455.84;;;-144.79;100.00
19827;BME280;10074;52.018;4.726;2023-05-22T14:36:18;46453.84;;;-144.79;100.00
19827;BME280;10074;52.018;4.726;2023-05-22T14:41:19;46457.88;;;-144.79;100.00
19827;BME280;10074;52.018;4.726;2023-05-22T14:46:20;46451.84;;;-144.79;100.00
19827;BME280;10074;52.018;4.726;2023-05-22T14:51:20;46453.84;;;-144.79;100.00
19827;BME280;10074;52.018;4.726;2023-05-22T14:56:21;46457.88;;;-144.79;100.00
19827;BME280;10074;52.018;4.726;2023-05-22T15:01:21;46451.84;;;-144.79;100.00
19827;BME280;10074;52.018;4.726;2023-05-22T15:06:22;46439.81;;;-144.79;100.00
19827;BME280;10074;52.018;4.726;2023-05-22T15:11:22;46453.84;;;-144.79;100.00
19827;BME280;10074;52.018;4.726;2023-05-22T15:16:23;46451.84;;;-144.79;100.00
19827;BME280;10074;52.018;4.726;2023-05-22T15:21:24;46453.84;;;-144.79;100.00
19827;BME280;10074;52.018;4.726;2023-05-22T15:26:24;46449.84;;;-144.79;100.00
19827;BME280;10074;52.018;4.726;2023-05-22T15:31:29;46447.84;;;-144.79;100.00
19827;BME280;10074;52.018;4.726;2023-05-22T15:36:31;46439.81;;;-144.79;100.00
19827;BME280;10074;52.018;4.726;2023-05-22T15:41:33;46433.81;;;-144.79;100.00
19827;BME280;10074;52.018;4.726;2023-05-22T15:46:34;46433.81;;;-144.79;100.00
19827;BME280;10074;52.018;4.726;2023-05-22T15:51:34;46427.78;;;-144.79;100.00
19827;BME280;10074;52.018;4.726;2023-05-22T15:56:35;46423.78;;;-144.79;100.00
19827;BME280;10074;52.018;4.726;2023-05-22T16:01:35;46419.75;;;-144.79;100.00
19827;BME280;10074;52.018;4.726;2023-05-22T16:06:35;46423.78;;;-144.79;100.00
19827;BME280;10074;52.018;4.726;2023-05-22T16:11:36;46407.72;;;-144.79;100.00
19827;BME280;10074;52.018;4.726;2023-05-22T16:16:36;46395.69;;;-144.79;100.00
19827;BME280;10074;52.018;4.726;2023-05-22T16:21:37;46385.69;;;-144.79;100.00
19827;BME280;10074;52.018;4.726;2023-05-22T16:26:37;46363.63;;;-144.79;100.00
19827;BME280;10074;52.018;4.726;2023-05-22T16:31:38;46373.66;;;-144.79;100.00
19827;BME280;10074;52.018;4.726;2023-05-22T16:36:38;46369.63;;;-144.79;100.00
19827;BME280;10074;52.018;4.726;2023-05-22T16:41:38;46343.56;;;-144.79;100.00
19827;BME280;10074;52.018;4.726;2023-05-22T16:46:39;46351.59;;;-144.79;100.00
19827;BME280;10074;52.018;4.726;2023-05-22T16:51:39;46341.56;;;-144.79;100.00
19827;BME280;10074;52.018;4.726;2023-05-22T16:56:40;46341.56;;;-144.79;100.00
19827;BME280;10074;52.018;4.726;2023-05-22T17:01:40;46327.53;;;-144.79;100.00
19827;BME280;10074;52.018;4.726;2023-05-22T17:06:41;46329.53;;;-144.79;100.00
19827;BME280;10074;52.018;4.726;2023-05-22T17:11:44;46315.50;;;-144.79;100.00
19827;BME280;10074;52.018;4.726;2023-05-22T17:16:44;46329.53;;;-144.79;100.00
19827;BME280;10074;52.018;4.726;2023-05-22T17:21:45;46323.53;;;-144.79;100.00
19827;BME280;10074;52.018;4.726;2023-05-22T17:26:45;46325.53;;;-144.79;100.00
19827;BME280;10074;52.018;4.726;2023-05-22T17:31:47;46315.50;;;-144.79;100.00
19827;BME280;10074;52.018;4.726;2023-05-22T17:36:48;46319.50;;;-144.79;100.00
19827;BME280;10074;52.018;4.726;2023-05-22T17:41:48;46307.47;;;-144.79;100.00
19827;BME280;10074;52.018;4.726;2023-05-22T17:46:48;46315.50;;;-144.79;100.00
19827;BME280;10074;52.018;4.726;2023-05-22T17:51:49;46323.53;;;-144.79;100.00
19827;BME280;10074;52.018;4.726;2023-05-22T17:56:49;46313.50;;;-144.79;100.00
19827;BME280;10074;52.018;4.726;2023-05-22T18:01:49;46329.53;;;-144.79;100.00
19827;BME280;10074;52.018;4.726;2023-05-22T18:06:50;46335.53;;;-144.79;100.00
19827;BME280;10074;52.018;4.726;2023-05-22T18:11:51;46339.56;;;-144.79;100.00
19827;BME280;10074;52.018;4.726;2023-05-22T18:16:51;46347.56;;;-144.79;100.00
19827;BME280;10074;52.018;4.726;2023-05-22T18:21:51;46351.59;;;-144.79;100.00
19827;BME280;10074;52.018;4.726;2023-05-22T18:26:53;46361.63;;;-144.79;100.00
19827;BME280;10074;52.018;4.726;2023-05-22T18:31:55;46343.56;;;-144.79;100.00
19827;BME280;10074;52.018;4.726;2023-05-22T18:36:55;46359.59;;;-144.79;100.00
19827;BME280;10074;52.018;4.726;2023-05-22T18:41:56;46351.59;;;-144.79;100.00
19827;BME280;10074;52.018;4.726;2023-05-22T18:46:57;46355.59;;;-144.79;100.00
19827;BME280;10074;52.018;4.726;2023-05-22T18:51:57;46367.63;;;-144.79;100.00
19827;BME280;10074;52.018;4.726;2023-05-22T18:56:58;46361.63;;;-144.79;100.00
19827;BME280;10074;52.018;4.726;2023-05-22T19:01:58;46363.63;;;-144.79;100.00
19827;BME280;10074;52.018;4.726;2023-05-22T19:06:58;46367.63;;;-144.79;100.00
19827;BME280;10074;52.018;4.726;2023-05-22T19:11:59;46363.63;;;-144.79;100.00
19827;BME280;10074;52.018;4.726;2023-05-22T19:16:59;46361.63;;;-144.79;100.00
19827;BME280;10074;52.018;4.726;2023-05-22T19:21:59;46355.59;;;-144.79;100.00
19827;BME280;10074;52.018;4.726;2023-05-22T19:27:00;46361.63;;;-144.79;100.00
19827;BME280;10074;52.018;4.726;2023-05-22T19:32:00;46347.56;;;-144.79;100.00
19827;BME280;10074;52.018;4.726;2023-05-22T19:37:00;46351.59;;;-144.79;100.00
19827;BME280;10074;52.018;4.726;2023-05-22T19:42:01;46353.59;;;-144.79;100.00
19827;BME280;10074;52.018;4.726;2023-05-22T19:47:01;46343.56;;;-144.79;100.00
19827;BME280;10074;52.018;4.726;2023-05-22T19:52:03;46349.59;;;-144.79;100.00
19827;BME280;10074;52.018;4.726;2023-05-22T19:57:03;46339.56;;;-144.79;100.00
19827;BME280;10074;52.018;4.726;2023-05-22T20:02:04;46335.53;;;-144.79;100.00
19827;BME280;10074;52.018;4.726;2023-05-22T20:07:04;46343.56;;;-144.79;100.00
19827;BME280;10074;52.018;4.726;2023-05-22T20:12:06;46333.53;;;-144.79;100.00
19827;BME280;10074;52.018;4.726;2023-05-22T20:17:07;46331.53;;;-144.79;100.00
19827;BME280;10074;52.018;4.726;2023-05-22T20:22:07;46331.53;;;-144.79;100.00
19827;BME280;10074;52.018;4.726;2023-05-22T20:27:07;46343.56;;;-144.79;100.00
19827;BME280;10074;52.018;4.726;2023-05-22T20:32:07;46335.53;;;-144.79;100.00
19827;BME280;10074;52.018;4.726;2023-05-22T20:37:08;46333.53;;;-144.79;100.00
19827;BME280;10074;52.018;4.726;2023-05-22T20:42:09;46339.56;;;-144.79;100.00
19827;BME280;10074;52.018;4.726;2023-05-22T20:47:10;46331.53;;;-144.79;100.00
19827;BME280;10074;52.018;4.726;2023-05-22T20:52:10;46345.56;;;-144.79;100.00
19827;BME280;10074;52.018;4.726;2023-05-22T20:57:12;46347.56;;;-144.79;100.00
19827;BME280;10074;52.018;4.726;2023-05-22T21:02:12;46353.59;;;-144.79;100.00
19827;BME280;10074;52.018;4.726;2023-05-22T21:07:13;46353.59;;;-144.79;100.00
19827;BME280;10074;52.018;4.726;2023-05-22T21:12:13;46355.59;;;-144.79;100.00
19827;BME280;10074;52.018;4.726;2023-05-22T21:17:13;46357.59;;;-144.79;100.00
19827;BME280;10074;52.018;4.726;2023-05-22T21:22:15;46359.59;;;-144.79;100.00
19827;BME280;10074;52.018;4.726;2023-05-22T21:27:15;46359.59;;;-144.79;100.00
19827;BME280;10074;52.018;4.726;2023-05-22T21:32:15;46353.59;;;-144.79;100.00
19827;BME280;10074;52.018;4.726;2023-05-22T21:37:16;46353.59;;;-144.79;100.00
19827;BME280;10074;52.018;4.726;2023-05-22T21:42:16;46347.56;;;-144.79;100.00
19827;BME280;10074;52.018;4.726;2023-05-22T21:47:17;46357.59;;;-144.79;100.00
19827;BME280;10074;52.018;4.726;2023-05-22T21:52:17;46351.59;;;-144.79;100.00
19827;BME280;10074;52.018;4.726;2023-05-22T21:57:17;46351.59;;;-144.79;100.00
19827;BME280;10074;52.018;4.726;2023-05-22T22:02:17;46365.63;;;-144.79;100.00
19827;BME280;10074;52.018;4.726;2023-05-22T22:07:18;46363.63;;;-144.79;100.00
19827;BME280;10074;52.018;4.726;2023-05-22T22:12:18;46365.63;;;-144.79;100.00
19827;BME280;10074;52.018;4.726;2023-05-22T22:17:18;46377.66;;;-144.79;100.00
19827;BME280;10074;52.018;4.726;2023-05-22T22:22:23;46375.66;;;-144.79;100.00
19827;BME280;10074;52.018;4.726;2023-05-22T22:27:24;46385.69;;;-144.79;100.00
19827;BME280;10074;52.018;4.726;2023-05-22T22:32:24;46381.66;;;-144.79;100.00
19827;BME280;10074;52.018;4.726;2023-05-22T22:37:24;46373.66;;;-144.79;100.00
19827;BME280;10074;52.018;4.726;2023-05-22T22:42:25;46367.63;;;-144.79;100.00
19827;BME280;10074;52.018;4.726;2023-05-22T22:47:28;46369.63;;;-144.79;100.00
19827;BME280;10074;52.018;4.726;2023-05-22T22:52:28;46363.63;;;-144.79;100.00
19827;BME280;10074;52.018;4.726;2023-05-22T22:57:29;46365.63;;;-144.79;100.00
19827;BME280;10074;52.018;4.726;2023-05-22T23:02:29;46351.59;;;-144.79;100.00
19827;BME280;10074;52.018;4.726;2023-05-22T23:07:30;46351.59;;;-144.79;100.00
19827;BME280;10074;52.018;4.726;2023-05-22T23:12:30;46351.59;;;-144.79;100.00
19827;BME280;10074;52.018;4.726;2023-05-22T23:17:34;46349.59;;;-144.79;100.00
19827;BME280;10074;52.018;4.726;2023-05-22T23:22:35;46341.56;;;-144.79;100.00
19827;BME280;10074;52.018;4.726;2023-05-22T23:27:35;46335.53;;;-144.79;100.00
19827;BME280;10074;52.018;4.726;2023-05-22T23:32:36;46323.53;;;-144.79;100.00
19827;BME280;10074;52.018;4.726;2023-05-22T23:37:36;46325.53;;;-144.79;100.00
19827;BME280;10074;52.018;4.726;2023-05-22T23:42:38;46317.50;;;-144.79;100.00
19827;BME280;10074;52.018;4.726;2023-05-22T23:47:38;46313.50;;;-144.79;100.00
19827;BME280;10074;52.018;4.726;2023-05-22T23:52:38;46313.50;;;-144.79;100.00
19827;BME280;10074;52.018;4.726;2023-05-22T23:57:39;46307.47;;;-144.79;100.00
